sensor_id;sensor_type;location;lat;lon;timestamp;P1;durP1;ratioP1;P2;durP2;ratioP2
73150;SDS011;61354;50.758;6.106;2023-10-13T00:00:29;9.15;;;4.43;;
73150;SDS011;61354;50.758;6.106;2023-10-13T00:02:58;8.38;;;3.78;;
73150;SDS011;61354;50.758;6.106;2023-10-13T00:05:28;5.60;;;3.63;;
73150;SDS011;61354;50.758;6.106;2023-10-13T00:07:56;8.30;;;4.13;;
73150;SDS011;61354;50.758;6.106;2023-10-13T00:10:32;6.70;;;4.05;;
73150;SDS011;61354;50.758;6.106;2023-10-13T00:12:58;6.60;;;4.18;;
73150;SDS011;61354;50.758;6.106;2023-10-13T00:15:50;6.25;;;3.78;;
73150;SDS011;61354;50.758;6.106;2023-10-13T00:18:25;7.63;;;4.32;;
73150;SDS011;61354;50.758;6.106;2023-10-13T00:20:53;7.95;;;4.13;;
73150;SDS011;61354;50.758;6.106;2023-10-13T00:23:22;7.20;;;4.10;;
73150;SDS011;61354;50.758;6.106;2023-10-13T00:25:51;6.82;;;4.35;;
73150;SDS011;61354;50.758;6.106;2023-10-13T00:28:25;7.65;;;3.78;;
73150;SDS011;61354;50.758;6.106;2023-10-13T00:30:52;6.53;;;3.95;;
73150;SDS011;61354;50.758;6.106;2023-10-13T00:33:26;7.57;;;4.32;;
73150;SDS011;61354;50.758;6.106;2023-10-13T00:35:57;7.35;;;3.83;;
73150;SDS011;61354;50.758;6.106;2023-10-13T00:38:23;7.55;;;3.88;;
73150;SDS011;61354;50.758;6.106;2023-10-13T00:40:49;8.77;;;4.32;;
73150;SDS011;61354;50.758;6.106;2023-10-13T00:43:19;6.93;;;4.05;;
73150;SDS011;61354;50.758;6.106;2023-10-13T00:45:47;7.47;;;3.90;;
73150;SDS011;61354;50.758;6.106;2023-10-13T00:48:30;6.65;;;3.85;;
73150;SDS011;61354;50.758;6.106;2023-10-13T00:51:00;7.22;;;3.97;;
73150;SDS011;61354;50.758;6.106;2023-10-13T00:53:33;11.07;;;4.18;;
73150;SDS011;61354;50.758;6.106;2023-10-13T00:56:05;7.97;;;3.92;;
73150;SDS011;61354;50.758;6.106;2023-10-13T00:58:53;6.68;;;4.10;;
73150;SDS011;61354;50.758;6.106;2023-10-13T01:01:20;9.77;;;5.03;;
73150;SDS011;61354;50.758;6.106;2023-10-13T01:03:55;6.70;;;3.75;;
73150;SDS011;61354;50.758;6.106;2023-10-13T01:06:25;6.10;;;4.15;;
73150;SDS011;61354;50.758;6.106;2023-10-13T01:11:25;7.80;;;3.88;;
73150;SDS011;61354;50.758;6.106;2023-10-13T01:13:55;6.97;;;3.72;;
73150;SDS011;61354;50.758;6.106;2023-10-13T01:16:22;7.00;;;4.40;;
73150;SDS011;61354;50.758;6.106;2023-10-13T01:18:52;9.48;;;4.18;;
73150;SDS011;61354;50.758;6.106;2023-10-13T01:21:18;9.23;;;4.32;;
73150;SDS011;61354;50.758;6.106;2023-10-13T01:23:53;8.65;;;4.10;;
73150;SDS011;61354;50.758;6.106;2023-10-13T01:26:19;6.30;;;3.85;;
73150;SDS011;61354;50.758;6.106;2023-10-13T01:28:52;7.95;;;3.72;;
73150;SDS011;61354;50.758;6.106;2023-10-13T01:31:22;6.85;;;4.28;;
73150;SDS011;61354;50.758;6.106;2023-10-13T01:33:55;9.05;;;4.25;;
73150;SDS011;61354;50.758;6.106;2023-10-13T01:36:27;8.63;;;4.13;;
73150;SDS011;61354;50.758;6.106;2023-10-13T01:38:53;8.77;;;4.13;;
73150;SDS011;61354;50.758;6.106;2023-10-13T01:41:20;8.18;;;4.43;;
73150;SDS011;61354;50.758;6.106;2023-10-13T01:43:46;8.52;;;4.00;;
73150;SDS011;61354;50.758;6.106;2023-10-13T01:46:13;6.78;;;4.47;;
73150;SDS011;61354;50.758;6.106;2023-10-13T01:48:40;8.55;;;4.20;;
73150;SDS011;61354;50.758;6.106;2023-10-13T01:51:08;10.20;;;4.40;;
73150;SDS011;61354;50.758;6.106;2023-10-13T01:53:38;5.30;;;3.95;;
73150;SDS011;61354;50.758;6.106;2023-10-13T01:56:04;7.93;;;4.75;;
73150;SDS011;61354;50.758;6.106;2023-10-13T01:58:35;8.90;;;4.43;;
73150;SDS011;61354;50.758;6.106;2023-10-13T02:01:02;6.90;;;4.22;;
73150;SDS011;61354;50.758;6.106;2023-10-13T02:03:32;8.48;;;4.25;;
73150;SDS011;61354;50.758;6.106;2023-10-13T02:05:59;9.20;;;4.03;;
73150;SDS011;61354;50.758;6.106;2023-10-13T02:08:29;7.82;;;4.00;;
73150;SDS011;61354;50.758;6.106;2023-10-13T02:10:56;8.50;;;4.30;;
73150;SDS011;61354;50.758;6.106;2023-10-13T02:13:24;7.30;;;3.83;;
73150;SDS011;61354;50.758;6.106;2023-10-13T02:15:54;6.68;;;3.60;;
73150;SDS011;61354;50.758;6.106;2023-10-13T02:18:29;7.93;;;3.85;;
73150;SDS011;61354;50.758;6.106;2023-10-13T02:21:07;8.50;;;3.67;;
73150;SDS011;61354;50.758;6.106;2023-10-13T02:23:41;8.30;;;3.83;;
73150;SDS011;61354;50.758;6.106;2023-10-13T02:26:09;8.15;;;3.88;;
73150;SDS011;61354;50.758;6.106;2023-10-13T02:28:41;9.13;;;4.35;;
73150;SDS011;61354;50.758;6.106;2023-10-13T02:31:07;6.15;;;3.55;;
73150;SDS011;61354;50.758;6.106;2023-10-13T02:33:33;7.70;;;4.32;;
73150;SDS011;61354;50.758;6.106;2023-10-13T02:36:00;8.05;;;3.90;;
73150;SDS011;61354;50.758;6.106;2023-10-13T02:38:33;5.85;;;3.63;;
73150;SDS011;61354;50.758;6.106;2023-10-13T02:41:14;6.47;;;3.70;;
73150;SDS011;61354;50.758;6.106;2023-10-13T02:43:55;6.50;;;3.75;;
73150;SDS011;61354;50.758;6.106;2023-10-13T02:46:22;8.80;;;4.47;;
73150;SDS011;61354;50.758;6.106;2023-10-13T02:48:48;7.60;;;3.85;;
73150;SDS011;61354;50.758;6.106;2023-10-13T02:51:22;7.18;;;3.20;;
73150;SDS011;61354;50.758;6.106;2023-10-13T02:54:00;6.78;;;3.65;;
73150;SDS011;61354;50.758;6.106;2023-10-13T02:56:28;7.15;;;3.63;;
73150;SDS011;61354;50.758;6.106;2023-10-13T02:58:55;6.45;;;3.70;;
73150;SDS011;61354;50.758;6.106;2023-10-13T03:01:31;6.25;;;3.35;;
73150;SDS011;61354;50.758;6.106;2023-10-13T03:04:04;6.50;;;3.25;;
73150;SDS011;61354;50.758;6.106;2023-10-13T03:06:31;4.95;;;3.47;;
73150;SDS011;61354;50.758;6.106;2023-10-13T03:08:59;6.88;;;3.40;;
73150;SDS011;61354;50.758;6.106;2023-10-13T03:11:43;6.50;;;3.47;;
73150;SDS011;61354;50.758;6.106;2023-10-13T03:16:56;8.38;;;3.60;;
73150;SDS011;61354;50.758;6.106;2023-10-13T03:19:43;5.45;;;3.28;;
73150;SDS011;61354;50.758;6.106;2023-10-13T03:22:16;8.40;;;3.75;;
73150;SDS011;61354;50.758;6.106;2023-10-13T03:24:43;7.10;;;3.55;;
73150;SDS011;61354;50.758;6.106;2023-10-13T03:27:12;5.40;;;3.40;;
73150;SDS011;61354;50.758;6.106;2023-10-13T03:29:42;7.20;;;3.42;;
73150;SDS011;61354;50.758;6.106;2023-10-13T03:32:13;9.40;;;3.55;;
73150;SDS011;61354;50.758;6.106;2023-10-13T03:34:44;6.43;;;3.65;;
73150;SDS011;61354;50.758;6.106;2023-10-13T03:37:30;6.82;;;3.33;;
73150;SDS011;61354;50.758;6.106;2023-10-13T03:40:06;6.53;;;3.00;;
73150;SDS011;61354;50.758;6.106;2023-10-13T03:43:02;7.03;;;3.60;;
73150;SDS011;61354;50.758;6.106;2023-10-13T03:45:34;6.55;;;3.08;;
73150;SDS011;61354;50.758;6.106;2023-10-13T03:48:04;5.70;;;3.00;;
73150;SDS011;61354;50.758;6.106;2023-10-13T03:50:40;6.32;;;3.47;;
73150;SDS011;61354;50.758;6.106;2023-10-13T03:53:13;8.63;;;3.72;;
73150;SDS011;61354;50.758;6.106;2023-10-13T03:55:39;6.18;;;3.03;;
73150;SDS011;61354;50.758;6.106;2023-10-13T04:00:39;6.25;;;3.05;;
73150;SDS011;61354;50.758;6.106;2023-10-13T04:03:08;5.53;;;2.95;;
73150;SDS011;61354;50.758;6.106;2023-10-13T04:05:41;6.07;;;3.05;;
73150;SDS011;61354;50.758;6.106;2023-10-13T04:08:07;8.38;;;3.67;;
73150;SDS011;61354;50.758;6.106;2023-10-13T04:10:52;5.97;;;3.40;;
73150;SDS011;61354;50.758;6.106;2023-10-13T04:13:19;6.82;;;3.70;;
73150;SDS011;61354;50.758;6.106;2023-10-13T04:16:03;6.35;;;3.17;;
73150;SDS011;61354;50.758;6.106;2023-10-13T04:18:50;4.95;;;3.60;;
73150;SDS011;61354;50.758;6.106;2023-10-13T04:21:25;4.68;;;3.15;;
73150;SDS011;61354;50.758;6.106;2023-10-13T04:24:12;5.95;;;3.10;;
73150;SDS011;61354;50.758;6.106;2023-10-13T04:26:49;7.97;;;3.10;;
73150;SDS011;61354;50.758;6.106;2023-10-13T04:29:35;6.15;;;3.03;;
73150;SDS011;61354;50.758;6.106;2023-10-13T04:32:19;5.25;;;3.22;;
73150;SDS011;61354;50.758;6.106;2023-10-13T04:34:55;7.25;;;2.90;;
73150;SDS011;61354;50.758;6.106;2023-10-13T04:37:24;7.70;;;3.28;;
73150;SDS011;61354;50.758;6.106;2023-10-13T04:40:13;7.15;;;3.30;;
73150;SDS011;61354;50.758;6.106;2023-10-13T04:42:39;7.13;;;3.47;;
73150;SDS011;61354;50.758;6.106;2023-10-13T04:45:18;6.38;;;3.00;;
73150;SDS011;61354;50.758;6.106;2023-10-13T04:47:56;6.60;;;3.05;;
73150;SDS011;61354;50.758;6.106;2023-10-13T04:50:39;6.60;;;2.80;;
73150;SDS011;61354;50.758;6.106;2023-10-13T04:53:19;6.90;;;2.95;;
73150;SDS011;61354;50.758;6.106;2023-10-13T04:56:00;5.90;;;2.42;;
73150;SDS011;61354;50.758;6.106;2023-10-13T04:58:32;9.23;;;3.00;;
73150;SDS011;61354;50.758;6.106;2023-10-13T05:01:01;5.53;;;2.53;;
73150;SDS011;61354;50.758;6.106;2023-10-13T05:03:46;6.97;;;2.92;;
73150;SDS011;61354;50.758;6.106;2023-10-13T05:06:31;7.82;;;2.85;;
73150;SDS011;61354;50.758;6.106;2023-10-13T05:09:09;5.40;;;2.63;;
73150;SDS011;61354;50.758;6.106;2023-10-13T05:11:54;5.60;;;2.67;;
73150;SDS011;61354;50.758;6.106;2023-10-13T05:14:38;10.10;;;3.03;;
73150;SDS011;61354;50.758;6.106;2023-10-13T05:17:30;7.05;;;2.75;;
73150;SDS011;61354;50.758;6.106;2023-10-13T05:20:14;6.05;;;2.95;;
73150;SDS011;61354;50.758;6.106;2023-10-13T05:22:58;7.03;;;2.75;;
73150;SDS011;61354;50.758;6.106;2023-10-13T05:25:42;6.97;;;2.97;;
73150;SDS011;61354;50.758;6.106;2023-10-13T05:28:27;9.55;;;3.65;;
73150;SDS011;61354;50.758;6.106;2023-10-13T05:31:11;10.50;;;3.03;;
73150;SDS011;61354;50.758;6.106;2023-10-13T05:33:55;7.18;;;2.95;;
73150;SDS011;61354;50.758;6.106;2023-10-13T05:36:38;10.88;;;3.60;;
73150;SDS011;61354;50.758;6.106;2023-10-13T05:39:23;9.60;;;3.53;;
73150;SDS011;61354;50.758;6.106;2023-10-13T05:42:07;6.90;;;3.38;;
73150;SDS011;61354;50.758;6.106;2023-10-13T05:44:50;8.48;;;3.53;;
73150;SDS011;61354;50.758;6.106;2023-10-13T05:47:42;8.98;;;3.03;;
73150;SDS011;61354;50.758;6.106;2023-10-13T05:50:08;7.22;;;3.10;;
73150;SDS011;61354;50.758;6.106;2023-10-13T05:52:46;10.57;;;3.28;;
73150;SDS011;61354;50.758;6.106;2023-10-13T05:55:19;9.05;;;3.25;;
73150;SDS011;61354;50.758;6.106;2023-10-13T05:58:03;8.65;;;3.00;;
73150;SDS011;61354;50.758;6.106;2023-10-13T06:00:47;9.45;;;3.40;;
73150;SDS011;61354;50.758;6.106;2023-10-13T06:03:31;8.57;;;2.67;;
73150;SDS011;61354;50.758;6.106;2023-10-13T06:06:15;7.35;;;3.58;;
73150;SDS011;61354;50.758;6.106;2023-10-13T06:08:59;10.90;;;3.30;;
73150;SDS011;61354;50.758;6.106;2023-10-13T06:11:43;8.60;;;3.00;;
73150;SDS011;61354;50.758;6.106;2023-10-13T06:14:39;6.72;;;2.78;;
73150;SDS011;61354;50.758;6.106;2023-10-13T06:17:24;13.32;;;4.32;;
73150;SDS011;61354;50.758;6.106;2023-10-13T06:20:08;10.13;;;3.55;;
73150;SDS011;61354;50.758;6.106;2023-10-13T06:22:52;11.10;;;3.05;;
73150;SDS011;61354;50.758;6.106;2023-10-13T06:25:37;8.80;;;3.63;;
73150;SDS011;61354;50.758;6.106;2023-10-13T06:28:22;10.85;;;3.28;;
73150;SDS011;61354;50.758;6.106;2023-10-13T06:31:06;7.47;;;3.28;;
73150;SDS011;61354;50.758;6.106;2023-10-13T06:33:33;8.00;;;3.28;;
73150;SDS011;61354;50.758;6.106;2023-10-13T06:36:01;8.15;;;3.17;;
73150;SDS011;61354;50.758;6.106;2023-10-13T06:38:27;8.43;;;3.78;;
73150;SDS011;61354;50.758;6.106;2023-10-13T06:44:03;9.98;;;3.67;;
73150;SDS011;61354;50.758;6.106;2023-10-13T06:46:30;8.98;;;3.40;;
73150;SDS011;61354;50.758;6.106;2023-10-13T06:55:03;6.00;;;3.00;;
73150;SDS011;61354;50.758;6.106;2023-10-13T06:57:31;8.18;;;3.30;;
73150;SDS011;61354;50.758;6.106;2023-10-13T07:00:00;9.88;;;3.63;;
73150;SDS011;61354;50.758;6.106;2023-10-13T07:02:38;9.77;;;3.30;;
73150;SDS011;61354;50.758;6.106;2023-10-13T07:05:04;5.75;;;3.38;;
73150;SDS011;61354;50.758;6.106;2023-10-13T07:07:32;5.78;;;2.70;;
73150;SDS011;61354;50.758;6.106;2023-10-13T07:09:58;9.70;;;4.05;;
73150;SDS011;61354;50.758;6.106;2023-10-13T07:12:24;7.55;;;3.60;;
73150;SDS011;61354;50.758;6.106;2023-10-13T07:14:53;7.20;;;3.10;;
73150;SDS011;61354;50.758;6.106;2023-10-13T07:17:46;10.65;;;3.55;;
73150;SDS011;61354;50.758;6.106;2023-10-13T07:20:21;9.15;;;3.33;;
73150;SDS011;61354;50.758;6.106;2023-10-13T07:23:04;10.40;;;3.85;;
73150;SDS011;61354;50.758;6.106;2023-10-13T07:25:37;8.25;;;3.20;;
73150;SDS011;61354;50.758;6.106;2023-10-13T07:28:05;8.68;;;3.60;;
73150;SDS011;61354;50.758;6.106;2023-10-13T07:30:34;6.60;;;3.00;;
73150;SDS011;61354;50.758;6.106;2023-10-13T07:33:18;8.65;;;3.17;;
73150;SDS011;61354;50.758;6.106;2023-10-13T07:35:45;9.98;;;3.75;;
73150;SDS011;61354;50.758;6.106;2023-10-13T07:38:17;8.75;;;3.33;;
73150;SDS011;61354;50.758;6.106;2023-10-13T07:40:43;8.48;;;3.17;;
73150;SDS011;61354;50.758;6.106;2023-10-13T07:43:18;8.70;;;3.13;;
73150;SDS011;61354;50.758;6.106;2023-10-13T07:48:16;7.85;;;3.47;;
73150;SDS011;61354;50.758;6.106;2023-10-13T07:50:44;8.68;;;3.38;;
73150;SDS011;61354;50.758;6.106;2023-10-13T07:53:11;11.32;;;3.78;;
73150;SDS011;61354;50.758;6.106;2023-10-13T07:55:49;8.20;;;3.45;;
73150;SDS011;61354;50.758;6.106;2023-10-13T07:58:22;6.53;;;3.42;;
73150;SDS011;61354;50.758;6.106;2023-10-13T08:00:51;10.50;;;3.78;;
73150;SDS011;61354;50.758;6.106;2023-10-13T08:03:35;10.07;;;3.72;;
73150;SDS011;61354;50.758;6.106;2023-10-13T08:06:13;7.60;;;3.60;;
73150;SDS011;61354;50.758;6.106;2023-10-13T08:08:42;10.43;;;4.25;;
73150;SDS011;61354;50.758;6.106;2023-10-13T08:11:12;7.10;;;3.17;;
73150;SDS011;61354;50.758;6.106;2023-10-13T08:13:56;11.07;;;3.65;;
73150;SDS011;61354;50.758;6.106;2023-10-13T08:16:46;10.38;;;3.90;;
73150;SDS011;61354;50.758;6.106;2023-10-13T08:19:26;8.48;;;4.10;;
73150;SDS011;61354;50.758;6.106;2023-10-13T08:21:53;6.35;;;3.40;;
73150;SDS011;61354;50.758;6.106;2023-10-13T08:24:39;7.28;;;3.60;;
73150;SDS011;61354;50.758;6.106;2023-10-13T08:27:06;6.95;;;4.05;;
73150;SDS011;61354;50.758;6.106;2023-10-13T08:29:32;8.07;;;3.92;;
73150;SDS011;61354;50.758;6.106;2023-10-13T08:32:16;7.80;;;3.92;;
73150;SDS011;61354;50.758;6.106;2023-10-13T08:34:47;8.35;;;3.80;;
73150;SDS011;61354;50.758;6.106;2023-10-13T08:37:13;7.40;;;4.03;;
73150;SDS011;61354;50.758;6.106;2023-10-13T08:39:55;9.48;;;4.10;;
73150;SDS011;61354;50.758;6.106;2023-10-13T08:42:37;7.18;;;3.88;;
73150;SDS011;61354;50.758;6.106;2023-10-13T08:45:13;9.95;;;4.28;;
73150;SDS011;61354;50.758;6.106;2023-10-13T08:47:51;9.68;;;4.32;;
73150;SDS011;61354;50.758;6.106;2023-10-13T08:50:48;9.88;;;4.18;;
73150;SDS011;61354;50.758;6.106;2023-10-13T08:53:16;8.25;;;4.38;;
73150;SDS011;61354;50.758;6.106;2023-10-13T08:56:03;9.43;;;4.07;;
73150;SDS011;61354;50.758;6.106;2023-10-13T08:58:39;8.30;;;4.28;;
73150;SDS011;61354;50.758;6.106;2023-10-13T09:01:30;8.27;;;3.97;;
73150;SDS011;61354;50.758;6.106;2023-10-13T09:04:25;8.02;;;4.40;;
73150;SDS011;61354;50.758;6.106;2023-10-13T09:06:58;9.65;;;4.63;;
73150;SDS011;61354;50.758;6.106;2023-10-13T09:12:23;9.45;;;4.95;;
73150;SDS011;61354;50.758;6.106;2023-10-13T09:14:59;8.73;;;4.22;;
73150;SDS011;61354;50.758;6.106;2023-10-13T09:17:43;8.45;;;4.32;;
73150;SDS011;61354;50.758;6.106;2023-10-13T09:20:27;9.88;;;4.10;;
73150;SDS011;61354;50.758;6.106;2023-10-13T09:23:15;9.93;;;4.45;;
73150;SDS011;61354;50.758;6.106;2023-10-13T09:25:50;9.13;;;4.93;;
73150;SDS011;61354;50.758;6.106;2023-10-13T09:28:23;7.68;;;4.43;;
73150;SDS011;61354;50.758;6.106;2023-10-13T09:30:53;8.88;;;4.50;;
73150;SDS011;61354;50.758;6.106;2023-10-13T09:33:26;9.88;;;4.72;;
73150;SDS011;61354;50.758;6.106;2023-10-13T09:36:04;8.93;;;4.72;;
73150;SDS011;61354;50.758;6.106;2023-10-13T09:38:32;10.77;;;5.10;;
73150;SDS011;61354;50.758;6.106;2023-10-13T09:40:59;7.80;;;4.85;;
73150;SDS011;61354;50.758;6.106;2023-10-13T09:43:43;9.57;;;4.47;;
73150;SDS011;61354;50.758;6.106;2023-10-13T09:46:10;8.82;;;5.18;;
73150;SDS011;61354;50.758;6.106;2023-10-13T09:48:43;10.27;;;4.95;;
73150;SDS011;61354;50.758;6.106;2023-10-13T09:51:29;11.82;;;5.15;;
73150;SDS011;61354;50.758;6.106;2023-10-13T09:56:35;7.95;;;4.07;;
73150;SDS011;61354;50.758;6.106;2023-10-13T09:59:18;8.40;;;4.50;;
73150;SDS011;61354;50.758;6.106;2023-10-13T10:01:49;7.40;;;4.55;;
73150;SDS011;61354;50.758;6.106;2023-10-13T10:04:17;8.02;;;4.80;;
73150;SDS011;61354;50.758;6.106;2023-10-13T10:06:54;9.05;;;4.93;;
73150;SDS011;61354;50.758;6.106;2023-10-13T10:09:25;9.98;;;4.90;;
73150;SDS011;61354;50.758;6.106;2023-10-13T10:14:39;7.35;;;4.30;;
73150;SDS011;61354;50.758;6.106;2023-10-13T10:17:08;9.57;;;4.40;;
73150;SDS011;61354;50.758;6.106;2023-10-13T10:19:49;10.20;;;4.90;;
73150;SDS011;61354;50.758;6.106;2023-10-13T10:22:26;9.70;;;4.93;;
73150;SDS011;61354;50.758;6.106;2023-10-13T10:24:59;9.23;;;4.95;;
73150;SDS011;61354;50.758;6.106;2023-10-13T10:27:28;8.60;;;4.32;;
73150;SDS011;61354;50.758;6.106;2023-10-13T10:29:56;8.27;;;4.55;;
73150;SDS011;61354;50.758;6.106;2023-10-13T10:32:32;11.23;;;4.53;;
73150;SDS011;61354;50.758;6.106;2023-10-13T10:35:05;11.15;;;4.38;;
73150;SDS011;61354;50.758;6.106;2023-10-13T10:37:40;7.93;;;4.07;;
73150;SDS011;61354;50.758;6.106;2023-10-13T10:40:18;9.48;;;4.40;;
73150;SDS011;61354;50.758;6.106;2023-10-13T10:43:02;9.65;;;4.45;;
73150;SDS011;61354;50.758;6.106;2023-10-13T10:45:36;11.18;;;4.45;;
73150;SDS011;61354;50.758;6.106;2023-10-13T10:48:11;8.43;;;4.30;;
73150;SDS011;61354;50.758;6.106;2023-10-13T10:50:53;8.32;;;4.03;;
73150;SDS011;61354;50.758;6.106;2023-10-13T10:53:23;9.75;;;4.30;;
73150;SDS011;61354;50.758;6.106;2023-10-13T10:56:12;8.65;;;4.55;;
73150;SDS011;61354;50.758;6.106;2023-10-13T10:58:58;10.35;;;4.43;;
73150;SDS011;61354;50.758;6.106;2023-10-13T11:01:25;9.57;;;4.55;;
73150;SDS011;61354;50.758;6.106;2023-10-13T11:04:12;8.20;;;4.05;;
73150;SDS011;61354;50.758;6.106;2023-10-13T11:06:49;8.18;;;4.13;;
73150;SDS011;61354;50.758;6.106;2023-10-13T11:12:18;7.82;;;3.85;;
73150;SDS011;61354;50.758;6.106;2023-10-13T11:14:48;9.90;;;4.57;;
73150;SDS011;61354;50.758;6.106;2023-10-13T11:17:19;7.65;;;3.63;;
73150;SDS011;61354;50.758;6.106;2023-10-13T11:20:07;6.97;;;3.67;;
73150;SDS011;61354;50.758;6.106;2023-10-13T11:22:41;11.02;;;4.00;;
73150;SDS011;61354;50.758;6.106;2023-10-13T11:25:19;8.95;;;3.42;;
73150;SDS011;61354;50.758;6.106;2023-10-13T11:27:48;9.48;;;3.67;;
73150;SDS011;61354;50.758;6.106;2023-10-13T11:30:17;10.60;;;4.03;;
73150;SDS011;61354;50.758;6.106;2023-10-13T11:35:36;8.05;;;3.63;;
73150;SDS011;61354;50.758;6.106;2023-10-13T11:38:28;9.10;;;3.50;;
73150;SDS011;61354;50.758;6.106;2023-10-13T11:41:06;8.00;;;3.72;;
73150;SDS011;61354;50.758;6.106;2023-10-13T11:43:41;14.38;;;4.07;;
73150;SDS011;61354;50.758;6.106;2023-10-13T11:46:26;8.18;;;3.40;;
73150;SDS011;61354;50.758;6.106;2023-10-13T11:49:05;8.00;;;3.65;;
73150;SDS011;61354;50.758;6.106;2023-10-13T11:51:34;9.63;;;3.70;;
73150;SDS011;61354;50.758;6.106;2023-10-13T11:54:03;9.98;;;4.05;;
73150;SDS011;61354;50.758;6.106;2023-10-13T11:56:29;11.10;;;3.63;;
73150;SDS011;61354;50.758;6.106;2023-10-13T11:58:54;13.50;;;3.83;;
73150;SDS011;61354;50.758;6.106;2023-10-13T12:01:26;9.25;;;3.20;;
73150;SDS011;61354;50.758;6.106;2023-10-13T12:04:12;9.73;;;3.33;;
73150;SDS011;61354;50.758;6.106;2023-10-13T12:06:57;6.47;;;3.60;;
73150;SDS011;61354;50.758;6.106;2023-10-13T12:09:42;7.78;;;3.60;;
73150;SDS011;61354;50.758;6.106;2023-10-13T12:12:26;14.25;;;4.63;;
73150;SDS011;61354;50.758;6.106;2023-10-13T12:14:53;10.05;;;4.25;;
73150;SDS011;61354;50.758;6.106;2023-10-13T12:20:03;13.25;;;3.92;;
73150;SDS011;61354;50.758;6.106;2023-10-13T12:22:36;13.02;;;3.63;;
73150;SDS011;61354;50.758;6.106;2023-10-13T12:25:08;10.73;;;3.75;;
73150;SDS011;61354;50.758;6.106;2023-10-13T12:27:53;11.80;;;3.92;;
73150;SDS011;61354;50.758;6.106;2023-10-13T12:33:21;6.47;;;3.60;;
73150;SDS011;61354;50.758;6.106;2023-10-13T12:35:59;15.07;;;3.83;;
73150;SDS011;61354;50.758;6.106;2023-10-13T12:38:37;12.00;;;3.65;;
73150;SDS011;61354;50.758;6.106;2023-10-13T12:41:11;8.73;;;3.47;;
73150;SDS011;61354;50.758;6.106;2023-10-13T12:43:56;8.25;;;3.20;;
73150;SDS011;61354;50.758;6.106;2023-10-13T12:46:41;10.27;;;3.20;;
73150;SDS011;61354;50.758;6.106;2023-10-13T12:49:25;8.93;;;4.13;;
73150;SDS011;61354;50.758;6.106;2023-10-13T12:52:06;9.02;;;3.47;;
73150;SDS011;61354;50.758;6.106;2023-10-13T12:54:41;11.95;;;3.75;;
73150;SDS011;61354;50.758;6.106;2023-10-13T12:57:12;8.95;;;4.15;;
73150;SDS011;61354;50.758;6.106;2023-10-13T12:59:39;9.63;;;3.55;;
73150;SDS011;61354;50.758;6.106;2023-10-13T13:02:05;10.68;;;4.13;;
73150;SDS011;61354;50.758;6.106;2023-10-13T13:04:32;8.63;;;3.80;;
73150;SDS011;61354;50.758;6.106;2023-10-13T13:07:03;7.90;;;4.18;;
73150;SDS011;61354;50.758;6.106;2023-10-13T13:09:29;12.50;;;4.65;;
73150;SDS011;61354;50.758;6.106;2023-10-13T13:11:56;11.00;;;3.42;;
73150;SDS011;61354;50.758;6.106;2023-10-13T13:14:24;11.70;;;3.42;;
73150;SDS011;61354;50.758;6.106;2023-10-13T13:17:11;10.73;;;3.53;;
73150;SDS011;61354;50.758;6.106;2023-10-13T13:19:37;8.77;;;3.55;;
73150;SDS011;61354;50.758;6.106;2023-10-13T13:22:06;10.38;;;4.70;;
73150;SDS011;61354;50.758;6.106;2023-10-13T13:24:42;11.07;;;4.55;;
73150;SDS011;61354;50.758;6.106;2023-10-13T13:27:09;11.85;;;3.83;;
73150;SDS011;61354;50.758;6.106;2023-10-13T13:29:41;11.30;;;4.20;;
73150;SDS011;61354;50.758;6.106;2023-10-13T13:32:07;9.30;;;3.63;;
73150;SDS011;61354;50.758;6.106;2023-10-13T13:34:47;10.43;;;4.38;;
73150;SDS011;61354;50.758;6.106;2023-10-13T13:37:22;9.00;;;3.97;;
73150;SDS011;61354;50.758;6.106;2023-10-13T13:39:52;8.85;;;3.83;;
73150;SDS011;61354;50.758;6.106;2023-10-13T13:42:18;9.10;;;3.53;;
73150;SDS011;61354;50.758;6.106;2023-10-13T13:44:45;8.43;;;3.90;;
73150;SDS011;61354;50.758;6.106;2023-10-13T13:47:16;9.73;;;4.00;;
73150;SDS011;61354;50.758;6.106;2023-10-13T13:49:42;13.00;;;4.28;;
73150;SDS011;61354;50.758;6.106;2023-10-13T13:52:19;12.00;;;4.03;;
73150;SDS011;61354;50.758;6.106;2023-10-13T13:54:58;5.93;;;3.40;;
73150;SDS011;61354;50.758;6.106;2023-10-13T13:57:28;11.45;;;3.80;;
73150;SDS011;61354;50.758;6.106;2023-10-13T13:59:55;9.32;;;3.33;;
73150;SDS011;61354;50.758;6.106;2023-10-13T14:04:48;10.60;;;3.90;;
73150;SDS011;61354;50.758;6.106;2023-10-13T14:07:17;8.73;;;3.65;;
73150;SDS011;61354;50.758;6.106;2023-10-13T14:09:45;9.35;;;5.25;;
73150;SDS011;61354;50.758;6.106;2023-10-13T14:12:16;8.35;;;4.00;;
73150;SDS011;61354;50.758;6.106;2023-10-13T14:15:05;9.02;;;3.90;;
73150;SDS011;61354;50.758;6.106;2023-10-13T14:17:44;10.35;;;4.05;;
73150;SDS011;61354;50.758;6.106;2023-10-13T14:20:14;8.60;;;3.92;;
73150;SDS011;61354;50.758;6.106;2023-10-13T14:22:44;6.80;;;3.15;;
73150;SDS011;61354;50.758;6.106;2023-10-13T14:25:13;9.13;;;4.03;;
73150;SDS011;61354;50.758;6.106;2023-10-13T14:27:42;8.45;;;3.58;;
73150;SDS011;61354;50.758;6.106;2023-10-13T14:30:08;10.55;;;4.18;;
73150;SDS011;61354;50.758;6.106;2023-10-13T14:32:34;8.25;;;4.18;;
73150;SDS011;61354;50.758;6.106;2023-10-13T14:35:05;8.40;;;3.63;;
73150;SDS011;61354;50.758;6.106;2023-10-13T14:37:40;9.57;;;3.92;;
73150;SDS011;61354;50.758;6.106;2023-10-13T14:40:06;9.57;;;3.72;;
73150;SDS011;61354;50.758;6.106;2023-10-13T14:42:38;9.05;;;4.18;;
73150;SDS011;61354;50.758;6.106;2023-10-13T14:45:06;7.03;;;3.85;;
73150;SDS011;61354;50.758;6.106;2023-10-13T14:47:38;7.53;;;3.58;;
73150;SDS011;61354;50.758;6.106;2023-10-13T14:50:05;7.80;;;3.85;;
73150;SDS011;61354;50.758;6.106;2023-10-13T14:52:31;9.07;;;3.92;;
73150;SDS011;61354;50.758;6.106;2023-10-13T14:54:59;8.38;;;3.45;;
73150;SDS011;61354;50.758;6.106;2023-10-13T14:57:25;9.23;;;4.18;;
73150;SDS011;61354;50.758;6.106;2023-10-13T14:59:54;6.97;;;3.40;;
73150;SDS011;61354;50.758;6.106;2023-10-13T15:02:21;8.02;;;3.90;;
73150;SDS011;61354;50.758;6.106;2023-10-13T15:04:47;7.18;;;3.85;;
73150;SDS011;61354;50.758;6.106;2023-10-13T15:07:16;10.05;;;3.80;;
73150;SDS011;61354;50.758;6.106;2023-10-13T15:09:43;7.32;;;3.40;;
73150;SDS011;61354;50.758;6.106;2023-10-13T15:12:09;6.97;;;3.22;;
73150;SDS011;61354;50.758;6.106;2023-10-13T15:14:39;7.60;;;4.10;;
73150;SDS011;61354;50.758;6.106;2023-10-13T15:17:09;6.82;;;3.50;;
73150;SDS011;61354;50.758;6.106;2023-10-13T15:19:35;9.27;;;3.83;;
73150;SDS011;61354;50.758;6.106;2023-10-13T15:22:06;7.70;;;3.78;;
73150;SDS011;61354;50.758;6.106;2023-10-13T15:24:33;8.27;;;3.63;;
73150;SDS011;61354;50.758;6.106;2023-10-13T15:27:08;6.68;;;3.47;;
73150;SDS011;61354;50.758;6.106;2023-10-13T15:29:34;8.63;;;4.00;;
73150;SDS011;61354;50.758;6.106;2023-10-13T15:32:03;5.60;;;3.45;;
73150;SDS011;61354;50.758;6.106;2023-10-13T15:34:29;7.30;;;3.53;;
73150;SDS011;61354;50.758;6.106;2023-10-13T15:36:56;10.68;;;4.40;;
73150;SDS011;61354;50.758;6.106;2023-10-13T15:39:22;6.55;;;3.58;;
73150;SDS011;61354;50.758;6.106;2023-10-13T15:41:49;7.15;;;3.03;;
73150;SDS011;61354;50.758;6.106;2023-10-13T15:44:19;7.07;;;3.60;;
73150;SDS011;61354;50.758;6.106;2023-10-13T15:46:47;7.20;;;3.65;;
73150;SDS011;61354;50.758;6.106;2023-10-13T15:49:17;6.28;;;3.45;;
73150;SDS011;61354;50.758;6.106;2023-10-13T15:51:42;6.55;;;3.33;;
73150;SDS011;61354;50.758;6.106;2023-10-13T15:54:08;8.00;;;3.88;;
73150;SDS011;61354;50.758;6.106;2023-10-13T15:56:44;6.30;;;3.58;;
73150;SDS011;61354;50.758;6.106;2023-10-13T15:59:14;8.38;;;4.03;;
73150;SDS011;61354;50.758;6.106;2023-10-13T16:01:40;9.52;;;3.83;;
73150;SDS011;61354;50.758;6.106;2023-10-13T16:04:07;6.95;;;3.80;;
73150;SDS011;61354;50.758;6.106;2023-10-13T16:06:37;6.10;;;3.20;;